Time;durP1;ratioP1;P1;durP2;ratioP2;P2;SDS_P1;SDS_P2;PMS_P1;PMS_P2;Temp;Humidity;BMP_temperature;BMP_pressure;BME280_temperature;BME280_humidity;BME280_pressure;Samples;Min_cycle;Max_cycle;Signal;HPM_P1;HPM_P2
2022/04/16 00:00:12;;;;;;;59.85;35.40;;;;;;;;;;5054949;28;20032;-39
2022/04/16 00:02:38;;;;;;;35.88;22.23;;;;;;;;;;5055052;28;20469;-43
2022/04/16 00:05:05;;;;;;;25.85;15.27;;;;;;;;;;5054555;28;20521;-38
2022/04/16 00:07:32;;;;;;;35.38;22.65;;;;;;;;;;5054858;28;20120;-44
2022/04/16 00:09:59;;;;;;;42.05;24.27;;;;;;;;;;5054827;28;20095;-40
2022/04/16 00:12:25;;;;;;;29.88;17.27;;;;;;;;;;5054538;28;20116;-40
2022/04/16 00:14:51;;;;;;;16.42;10.75;;;;;;;;;;5054688;28;20029;-42
2022/04/16 00:17:17;;;;;;;26.85;16.70;;;;;;;;;;5054663;28;20079;-39
2022/04/16 00:19:43;;;;;;;39.15;22.20;;;;;;;;;;5053307;28;20025;-43
2022/04/16 00:22:12;;;;;;;24.55;14.68;;;;;;;;;;5054097;28;20464;-42
2022/04/16 00:24:41;;;;;;;25.00;16.23;;;;;;;;;;5054450;28;20033;-38
2022/04/16 00:27:09;;;;;;;18.75;12.70;;;;;;;;;;5054224;28;20068;-44
2022/04/16 00:29:36;;;;;;;24.23;16.23;;;;;;;;;;5054302;28;20033;-42
2022/04/16 00:32:02;;;;;;;40.22;24.63;;;;;;;;;;5054136;28;20477;-39
2022/04/16 00:34:29;;;;;;;19.38;12.45;;;;;;;;;;5054250;28;20051;-38
2022/04/16 00:36:57;;;;;;;24.23;15.13;;;;;;;;;;5054364;28;20068;-38
2022/04/16 00:39:25;;;;;;;25.05;13.88;;;;;;;;;;5054361;28;20017;-44
2022/04/16 00:41:51;;;;;;;35.83;19.98;;;;;;;;;;5054119;28;20021;-40
2022/04/16 00:44:21;;;;;;;31.27;18.27;;;;;;;;;;5054376;28;20095;-44
2022/04/16 00:46:47;;;;;;;33.47;18.33;;;;;;;;;;5053993;28;20021;-41
2022/04/16 00:49:13;;;;;;;26.20;16.17;;;;;;;;;;5053723;28;20045;-40
2022/04/16 00:51:42;;;;;;;28.85;14.80;;;;;;;;;;5054149;28;20025;-43
2022/04/16 00:54:09;;;;;;;35.65;20.23;;;;;;;;;;5053850;28;20036;-39
2022/04/16 00:56:36;;;;;;;26.73;15.30;;;;;;;;;;5053850;28;20025;-43
2022/04/16 00:59:05;;;;;;;35.63;21.95;;;;;;;;;;5053662;28;20044;-40
2022/04/16 01:01:34;;;;;;;17.95;10.98;;;;;;;;;;5053923;28;20060;-42
2022/04/16 01:04:00;;;;;;;34.20;20.73;;;;;;;;;;5053727;28;20036;-39
2022/04/16 01:06:39;;;;;;;24.27;14.38;;;;;;;;;;5057928;28;20402;-41
2022/04/16 01:09:05;;;;;;;20.55;14.27;;;;;;;;;;5053370;28;20041;-40
2022/04/16 01:11:34;;;;;;;19.75;13.32;;;;;;;;;;5053569;28;20071;-44
2022/04/16 01:14:03;;;;;;;24.73;14.80;;;;;;;;;;5053464;28;20051;-39
2022/04/16 01:16:30;;;;;;;28.25;17.90;;;;;;;;;;5072927;28;20057;-40
2022/04/16 01:18:56;;;;;;;15.88;11.50;;;;;;;;;;5071448;28;20021;-42
2022/04/16 01:21:22;;;;;;;15.63;10.88;;;;;;;;;;5053445;28;20021;-40
2022/04/16 01:23:48;;;;;;;20.45;14.02;;;;;;;;;;5053248;28;20341;-41
2022/04/16 01:26:14;;;;;;;19.27;12.65;;;;;;;;;;5053499;28;20033;-43
2022/04/16 01:28:40;;;;;;;18.90;12.27;;;;;;;;;;5053221;28;20036;-39
2022/04/16 01:31:07;;;;;;;17.63;12.30;;;;;;;;;;5052974;28;20056;-40
2022/04/16 01:33:33;;;;;;;18.58;13.35;;;;;;;;;;5053026;28;20108;-38
2022/04/16 01:36:00;;;;;;;15.70;10.82;;;;;;;;;;5053252;28;20044;-40
2022/04/16 01:38:26;;;;;;;20.98;14.15;;;;;;;;;;5052746;28;20036;-39
2022/04/16 01:41:01;;;;;;;17.55;10.63;;;;;;;;;;5053419;28;20372;-39
2022/04/16 01:43:29;;;;;;;16.83;12.30;;;;;;;;;;5053125;28;20029;-43
2022/04/16 01:45:55;;;;;;;16.20;10.60;;;;;;;;;;5053321;28;20053;-43
2022/04/16 01:48:22;;;;;;;16.92;11.38;;;;;;;;;;5052979;28;20132;-44
2022/04/16 01:50:51;;;;;;;24.73;11.48;;;;;;;;;;5052858;28;20025;-43
2022/04/16 01:53:19;;;;;;;21.30;12.63;;;;;;;;;;5053050;28;20037;-42
2022/04/16 01:55:45;;;;;;;17.35;10.07;;;;;;;;;;5053104;28;20017;-43
2022/04/16 01:58:14;;;;;;;13.07;9.75;;;;;;;;;;5052855;28;20492;-40
2022/04/16 02:00:40;;;;;;;11.38;8.88;;;;;;;;;;5053097;28;20033;-40
2022/04/16 02:03:08;;;;;;;16.27;10.68;;;;;;;;;;5053035;28;20388;-40
2022/04/16 02:05:35;;;;;;;12.85;9.30;;;;;;;;;;5052919;28;20019;-40
2022/04/16 02:08:01;;;;;;;13.57;10.10;;;;;;;;;;5053065;28;20392;-42
2022/04/16 02:10:27;;;;;;;13.00;10.38;;;;;;;;;;5052893;28;20396;-40
2022/04/16 02:12:53;;;;;;;16.08;10.52;;;;;;;;;;5052901;28;20024;-42
2022/04/16 02:15:19;;;;;;;14.35;10.73;;;;;;;;;;5052965;28;20377;-42
2022/04/16 02:17:45;;;;;;;19.50;12.60;;;;;;;;;;5052765;28;20046;-43
2022/04/16 02:20:11;;;;;;;14.07;10.38;;;;;;;;;;5052654;28;20380;-41
2022/04/16 02:22:42;;;;;;;15.48;10.63;;;;;;;;;;5051395;28;20051;-40
2022/04/16 02:25:08;;;;;;;14.13;9.35;;;;;;;;;;5052970;28;20096;-41
2022/04/16 02:27:34;;;;;;;15.07;9.93;;;;;;;;;;5052516;28;20549;-42
2022/04/16 02:30:02;;;;;;;13.48;9.70;;;;;;;;;;5052637;28;20389;-40
2022/04/16 02:32:28;;;;;;;15.57;10.68;;;;;;;;;;5052765;28;20389;-41
2022/04/16 02:34:56;;;;;;;14.43;9.82;;;;;;;;;;5052846;28;20017;-42
2022/04/16 02:37:22;;;;;;;15.10;9.95;;;;;;;;;;5052588;28;20037;-39
2022/04/16 02:39:48;;;;;;;12.75;8.93;;;;;;;;;;5052733;28;20492;-42
2022/04/16 02:42:14;;;;;;;13.25;9.13;;;;;;;;;;5053535;28;20102;-43
2022/04/16 02:47:25;;;;;;;15.52;9.93;;;;;;;;;;5056427;28;20098;-41
2022/04/16 02:49:51;;;;;;;13.50;8.48;;;;;;;;;;5056016;28;20025;-37
2022/04/16 02:52:17;;;;;;;14.02;9.57;;;;;;;;;;5056324;28;20033;-38
2022/04/16 02:54:43;;;;;;;11.40;9.35;;;;;;;;;;5055960;28;20053;-39
2022/04/16 02:57:09;;;;;;;12.18;9.23;;;;;;;;;;5056164;28;20029;-40
2022/04/16 02:59:35;;;;;;;13.93;9.85;;;;;;;;;;5055947;28;20466;-40
2022/04/16 03:02:01;;;;;;;29.65;16.98;;;;;;;;;;5056076;28;20057;-43
2022/04/16 03:04:27;;;;;;;49.28;30.27;;;;;;;;;;5055893;28;20021;-44
2022/04/16 03:06:54;;;;;;;52.80;33.05;;;;;;;;;;5055919;28;20025;-40
2022/04/16 03:09:23;;;;;;;54.85;32.58;;;;;;;;;;5055870;28;20504;-44
2022/04/16 03:11:49;;;;;;;54.88;34.75;;;;;;;;;;5056118;28;20047;-38
2022/04/16 03:19:45;;;;;;;43.92;27.95;;;;;;;;;;5055752;28;20133;-40
2022/04/16 03:22:12;;;;;;;48.75;29.23;;;;;;;;;;5055941;28;20376;-40
2022/04/16 03:24:38;;;;;;;45.10;28.30;;;;;;;;;;5055639;28;20033;-42
2022/04/16 03:27:04;;;;;;;54.85;31.65;;;;;;;;;;5055750;28;20017;-44
2022/04/16 03:29:30;;;;;;;56.10;35.10;;;;;;;;;;5055431;28;20048;-38
2022/04/16 03:31:56;;;;;;;59.83;38.42;;;;;;;;;;5055500;28;20075;-38
2022/04/16 03:34:22;;;;;;;67.80;42.58;;;;;;;;;;5055485;28;20028;-41
2022/04/16 03:36:48;;;;;;;67.13;38.70;;;;;;;;;;5055356;28;20024;-39
2022/04/16 03:39:14;;;;;;;60.60;36.22;;;;;;;;;;5055340;28;20028;-40
2022/04/16 03:41:40;;;;;;;55.10;32.85;;;;;;;;;;5055375;28;20036;-38
2022/04/16 03:44:07;;;;;;;56.83;31.02;;;;;;;;;;5055243;28;20028;-39
2022/04/16 03:46:33;;;;;;;47.92;29.27;;;;;;;;;;5055105;28;20538;-39
2022/04/16 03:48:59;;;;;;;51.13;28.25;;;;;;;;;;5054774;28;20386;-40
2022/04/16 03:51:26;;;;;;;42.40;25.25;;;;;;;;;;5055235;28;20033;-39
2022/04/16 03:53:52;;;;;;;43.88;25.85;;;;;;;;;;5054757;28;20021;-40
2022/04/16 04:01:48;;;;;;;58.03;35.95;;;;;;;;;;5055165;28;20044;-39
2022/04/16 04:04:14;;;;;;;36.40;23.10;;;;;;;;;;5054945;28;20472;-40
2022/04/16 04:06:40;;;;;;;20.20;14.15;;;;;;;;;;5054860;28;20029;-42
2022/04/16 04:09:09;;;;;;;17.58;11.73;;;;;;;;;;5054767;28;20090;-41
2022/04/16 04:11:35;;;;;;;18.77;11.73;;;;;;;;;;5054151;28;20039;-41
2022/04/16 04:14:01;;;;;;;26.30;10.73;;;;;;;;;;5053980;28;20491;-39
2022/04/16 04:16:27;;;;;;;13.88;9.07;;;;;;;;;;5054551;28;20025;-42
2022/04/16 04:18:53;;;;;;;10.10;7.10;;;;;;;;;;5054115;28;20427;-40
2022/04/16 04:21:19;;;;;;;12.27;8.05;;;;;;;;;;5054163;28;20032;-39
2022/04/16 04:23:45;;;;;;;13.15;8.23;;;;;;;;;;5054100;28;20028;-39
2022/04/16 04:26:12;;;;;;;8.82;6.60;;;;;;;;;;5053934;28;20484;-40
2022/04/16 04:28:39;;;;;;;9.55;7.45;;;;;;;;;;5053530;28;20408;-40
2022/04/16 04:31:10;;;;;;;12.27;6.80;;;;;;;;;;5053946;28;20021;-40
2022/04/16 04:33:36;;;;;;;11.05;7.10;;;;;;;;;;5054023;28;20036;-38
2022/04/16 04:36:02;;;;;;;8.68;6.75;;;;;;;;;;5053757;28;20013;-45
2022/04/16 04:38:28;;;;;;;14.27;7.47;;;;;;;;;;5053911;28;20028;-40
2022/04/16 04:40:54;;;;;;;12.60;7.57;;;;;;;;;;5053729;28;20158;-43
2022/04/16 04:43:20;;;;;;;8.82;7.25;;;;;;;;;;5053468;28;20054;-38
2022/04/16 04:45:47;;;;;;;10.68;6.88;;;;;;;;;;5053645;28;20373;-45
2022/04/16 04:48:13;;;;;;;11.02;6.65;;;;;;;;;;5053467;28;20051;-38
2022/04/16 04:50:39;;;;;;;8.05;6.35;;;;;;;;;;5053319;28;20029;-39
2022/04/16 04:53:05;;;;;;;8.27;6.28;;;;;;;;;;5053590;28;20060;-39
2022/04/16 04:55:31;;;;;;;9.90;7.18;;;;;;;;;;5053495;28;20021;-40
2022/04/16 04:57:57;;;;;;;9.43;6.68;;;;;;;;;;5053197;28;20017;-44
2022/04/16 05:00:23;;;;;;;10.07;7.30;;;;;;;;;;5053284;28;20020;-40
2022/04/16 05:02:50;;;;;;;10.60;6.88;;;;;;;;;;5053436;28;20511;-44
2022/04/16 05:05:16;;;;;;;9.05;6.70;;;;;;;;;;5052300;28;20021;-39
2022/04/16 05:07:42;;;;;;;8.32;6.50;;;;;;;;;;5053075;28;20044;-42
2022/04/16 05:10:09;;;;;;;8.82;6.70;;;;;;;;;;5053318;28;20032;-42
2022/04/16 05:12:35;;;;;;;8.98;6.38;;;;;;;;;;5053158;28;20384;-39
2022/04/16 05:15:04;;;;;;;9.65;7.13;;;;;;;;;;5052914;28;20380;-41
2022/04/16 05:17:30;;;;;;;10.23;6.95;;;;;;;;;;5053218;28;20027;-39
2022/04/16 05:19:56;;;;;;;11.40;7.95;;;;;;;;;;5053011;28;20452;-39
2022/04/16 05:22:22;;;;;;;8.50;6.70;;;;;;;;;;5052945;28;20112;-44
2022/04/16 05:24:48;;;;;;;10.43;6.93;;;;;;;;;;5051382;28;20480;-39
2022/04/16 05:27:15;;;;;;;10.88;7.68;;;;;;;;;;5053393;28;20079;-44
2022/04/16 05:30:06;;;;;;;12.50;7.47;;;;;;;;;;5052177;28;20036;-40
2022/04/16 05:32:32;;;;;;;;;;;;;;;;;;5051532;28;20029;-41
2022/04/16 05:34:58;;;;;;;11.20;7.30;;;;;;;;;;5052791;28;20000;-43
2022/04/16 05:37:26;;;;;;;10.52;7.18;;;;;;;;;;5052681;28;20465;-44
2022/04/16 05:39:54;;;;;;;9.23;7.47;;;;;;;;;;5051061;28;20143;-43
2022/04/16 05:42:21;;;;;;;9.77;7.38;;;;;;;;;;5052900;28;20066;-39
2022/04/16 05:44:47;;;;;;;11.93;7.47;;;;;;;;;;5052616;28;20029;-39
2022/04/16 05:47:13;;;;;;;10.30;7.60;;;;;;;;;;5051140;28;20037;-39
2022/04/16 05:49:39;;;;;;;10.93;6.85;;;;;;;;;;5052255;28;20098;-40
2022/04/16 05:52:07;;;;;;;10.52;6.80;;;;;;;;;;5050048;28;20468;-44
2022/04/16 05:54:33;;;;;;;8.98;6.90;;;;;;;;;;5052252;28;20385;-40
2022/04/16 05:57:00;;;;;;;8.43;6.70;;;;;;;;;;5052413;28;20027;-38
2022/04/16 05:59:26;;;;;;;9.88;7.05;;;;;;;;;;5052403;28;20083;-43
2022/04/16 06:01:52;;;;;;;10.10;7.05;;;;;;;;;;5052438;28;20472;-41
2022/04/16 06:04:18;;;;;;;10.50;7.68;;;;;;;;;;5052619;28;20026;-39
2022/04/16 06:06:44;;;;;;;8.93;6.35;;;;;;;;;;5052650;28;20017;-41
2022/04/16 06:09:10;;;;;;;10.32;7.20;;;;;;;;;;5052461;28;20048;-41
2022/04/16 06:11:36;;;;;;;10.20;6.63;;;;;;;;;;5052369;28;20018;-44
2022/04/16 06:14:02;;;;;;;14.75;8.25;;;;;;;;;;5052234;28;20461;-42
2022/04/16 06:16:30;;;;;;;12.25;7.55;;;;;;;;;;5053841;28;20021;-40
2022/04/16 06:18:56;;;;;;;11.43;7.32;;;;;;;;;;5056505;28;20104;-41
2022/04/16 06:21:22;;;;;;;11.20;7.57;;;;;;;;;;5056395;28;20017;-38
2022/04/16 06:23:51;;;;;;;10.15;7.32;;;;;;;;;;5056294;28;20078;-43
2022/04/16 06:26:18;;;;;;;12.15;7.78;;;;;;;;;;5056205;28;20048;-40
2022/04/16 06:28:44;;;;;;;9.30;7.03;;;;;;;;;;5056109;28;20079;-40
2022/04/16 06:31:10;;;;;;;9.70;7.20;;;;;;;;;;5056321;28;20086;-40
2022/04/16 06:33:36;;;;;;;9.85;7.13;;;;;;;;;;5056143;28;20016;-39
2022/04/16 06:36:02;;;;;;;11.40;7.85;;;;;;;;;;5056027;28;20099;-39
2022/04/16 06:38:29;;;;;;;9.00;7.43;;;;;;;;;;5056099;28;20082;-42
2022/04/16 06:40:55;;;;;;;15.30;7.60;;;;;;;;;;5055950;28;20423;-40
2022/04/16 06:43:21;;;;;;;11.23;7.53;;;;;;;;;;5055863;28;20033;-40
2022/04/16 06:45:47;;;;;;;10.73;7.15;;;;;;;;;;5055647;28;20381;-39
2022/04/16 06:48:14;;;;;;;16.50;10.50;;;;;;;;;;5055590;28;20128;-39
2022/04/16 06:50:40;;;;;;;15.43;8.98;;;;;;;;;;5055663;28;20055;-40
2022/04/16 06:53:06;;;;;;;23.52;12.50;;;;;;;;;;5055820;28;20029;-44
2022/04/16 06:55:32;;;;;;;19.88;13.45;;;;;;;;;;5055706;28;20017;-40
2022/04/16 06:57:58;;;;;;;14.32;9.20;;;;;;;;;;5055583;28;20031;-39
2022/04/16 07:00:24;;;;;;;13.38;8.88;;;;;;;;;;5055449;28;20021;-40
2022/04/16 07:02:52;;;;;;;22.48;13.30;;;;;;;;;;5055647;28;20021;-40
2022/04/16 07:05:18;;;;;;;15.55;9.35;;;;;;;;;;5055605;28;20055;-40
2022/04/16 07:07:44;;;;;;;10.15;7.82;;;;;;;;;;5055366;28;20099;-40
2022/04/16 07:10:11;;;;;;;12.13;8.25;;;;;;;;;;5055473;28;20075;-39
2022/04/16 07:12:37;;;;;;;11.88;7.40;;;;;;;;;;5055361;28;20110;-39
2022/04/16 07:15:05;;;;;;;10.07;7.80;;;;;;;;;;5055174;28;20461;-40
2022/04/16 07:17:31;;;;;;;13.20;7.93;;;;;;;;;;5055395;28;20028;-42
2022/04/16 07:19:57;;;;;;;15.98;8.98;;;;;;;;;;5055102;28;20457;-41
2022/04/16 07:22:23;;;;;;;10.85;8.05;;;;;;;;;;5055206;28;20079;-41
2022/04/16 07:24:49;;;;;;;10.57;8.63;;;;;;;;;;5055144;28;20384;-40
2022/04/16 07:27:16;;;;;;;10.73;7.65;;;;;;;;;;5055102;28;20484;-40
2022/04/16 07:29:42;;;;;;;12.27;9.05;;;;;;;;;;5054105;28;20053;-40
2022/04/16 07:32:08;;;;;;;10.30;8.05;;;;;;;;;;5055070;28;20025;-43
2022/04/16 07:34:34;;;;;;;13.05;9.40;;;;;;;;;;5055221;28;20021;-41
2022/04/16 07:37:00;;;;;;;8.80;7.40;;;;;;;;;;5053819;28;20201;-43
2022/04/16 07:39:26;;;;;;;8.45;6.95;;;;;;;;;;5052818;28;20456;-42
2022/04/16 07:41:52;;;;;;;9.88;7.70;;;;;;;;;;5054850;28;20100;-40
2022/04/16 07:44:19;;;;;;;10.75;6.90;;;;;;;;;;5054696;28;20078;-42
2022/04/16 07:46:45;;;;;;;10.70;8.30;;;;;;;;;;5054839;28;20028;-39
2022/04/16 07:49:11;;;;;;;9.43;7.53;;;;;;;;;;5054387;28;20081;-39
2022/04/16 07:51:43;;;;;;;9.23;6.53;;;;;;;;;;5054805;28;20044;-41
2022/04/16 07:54:09;;;;;;;10.02;7.53;;;;;;;;;;5054699;28;20053;-41
2022/04/16 07:56:35;;;;;;;13.38;10.02;;;;;;;;;;5054520;28;20465;-42
2022/04/16 07:59:01;;;;;;;26.50;18.25;;;;;;;;;;5054470;28;20037;-41
2022/04/16 08:01:27;;;;;;;33.35;23.88;;;;;;;;;;5054601;28;20019;-38
2022/04/16 08:03:56;;;;;;;24.35;15.95;;;;;;;;;;5054012;28;20472;-40
2022/04/16 08:06:22;;;;;;;15.65;11.38;;;;;;;;;;5054043;28;20044;-45
2022/04/16 08:08:50;;;;;;;15.55;11.50;;;;;;;;;;5051784;28;20064;-44
2022/04/16 08:11:17;;;;;;;17.77;10.95;;;;;;;;;;5054208;28;20500;-41
2022/04/16 08:13:43;;;;;;;45.08;27.00;;;;;;;;;;5054782;28;20047;-39
2022/04/16 08:16:09;;;;;;;46.85;26.40;;;;;;;;;;5054329;28;20021;-42
2022/04/16 08:18:36;;;;;;;51.33;33.35;;;;;;;;;;5054223;28;20473;-39
2022/04/16 08:21:02;;;;;;;43.90;26.55;;;;;;;;;;5054047;28;20021;-39
2022/04/16 08:23:33;;;;;;;21.40;15.18;;;;;;;;;;5053057;28;20397;-39
2022/04/16 08:25:59;;;;;;;31.70;19.63;;;;;;;;;;5054140;28;20188;-40
2022/04/16 08:28:27;;;;;;;60.38;42.03;;;;;;;;;;5053967;28;20037;-41
2022/04/16 08:30:54;;;;;;;44.38;29.88;;;;;;;;;;5053809;28;20041;-44
2022/04/16 08:33:21;;;;;;;99.25;60.70;;;;;;;;;;5054043;28;20408;-46
2022/04/16 08:35:47;;;;;;;62.63;38.85;;;;;;;;;;5054073;28;20381;-40
2022/04/16 08:38:13;;;;;;;47.97;30.70;;;;;;;;;;5053846;28;20057;-42
2022/04/16 08:40:40;;;;;;;31.13;18.85;;;;;;;;;;5052670;28;20052;-40
2022/04/16 08:43:07;;;;;;;25.48;17.75;;;;;;;;;;5053861;28;20009;-45
2022/04/16 08:45:35;;;;;;;15.20;8.45;;;;;;;;;;5053852;28;20021;-42
2022/04/16 08:48:02;;;;;;;28.88;15.57;;;;;;;;;;5053584;28;20049;-47
2022/04/16 08:50:29;;;;;;;36.35;23.63;;;;;;;;;;5053772;28;20029;-46
2022/04/16 08:52:55;;;;;;;23.73;16.48;;;;;;;;;;5054131;28;20091;-45
2022/04/16 08:55:21;;;;;;;12.20;9.10;;;;;;;;;;5053977;28;20468;-39
2022/04/16 08:57:47;;;;;;;11.23;8.63;;;;;;;;;;5054161;28;20036;-47
2022/04/16 09:00:13;;;;;;;12.93;8.57;;;;;;;;;;5054181;28;20112;-42
2022/04/16 09:02:49;;;;;;;20.92;12.43;;;;;;;;;;5054213;28;20495;-40
2022/04/16 09:05:18;;;;;;;9.85;6.95;;;;;;;;;;5052902;28;20043;-42
2022/04/16 09:07:44;;;;;;;9.95;7.43;;;;;;;;;;5053867;28;20074;-43
2022/04/16 09:10:11;;;;;;;8.85;6.82;;;;;;;;;;5052828;28;20032;-49
2022/04/16 09:12:38;;;;;;;14.73;8.02;;;;;;;;;;5053491;28;20013;-50
2022/04/16 09:15:11;;;;;;;9.35;6.55;;;;;;;;;;5053213;28;20017;-50
2022/04/16 09:17:38;;;;;;;11.13;7.15;;;;;;;;;;5051464;28;20029;-44
2022/04/16 09:20:09;;;;;;;11.68;6.20;;;;;;;;;;5052743;28;20028;-45
2022/04/16 09:22:37;;;;;;;10.13;6.28;;;;;;;;;;5051144;28;20020;-44
2022/04/16 09:25:04;;;;;;;9.93;5.60;;;;;;;;;;5053523;28;20021;-42
2022/04/16 09:27:40;;;;;;;12.30;7.90;;;;;;;;;;5053350;28;21319;-52
2022/04/16 09:30:07;;;;;;;8.95;6.35;;;;;;;;;;5051592;28;20508;-46
2022/04/16 09:32:41;;;;;;;8.88;5.75;;;;;;;;;;5053026;28;20104;-44
2022/04/16 09:35:08;;;;;;;9.60;6.43;;;;;;;;;;5053042;28;20031;-44
2022/04/16 09:37:34;;;;;;;9.15;7.03;;;;;;;;;;5052676;28;20050;-47
2022/04/16 09:40:11;;;;;;;21.73;14.68;;;;;;;;;;5052989;28;20029;-40
2022/04/16 09:42:37;;;;;;;13.75;10.20;;;;;;;;;;5053275;28;20032;-41
2022/04/16 09:45:13;;;;;;;26.40;18.25;;;;;;;;;;5053287;28;20025;-42
2022/04/16 09:47:44;;;;;;;33.65;22.27;;;;;;;;;;5034677;28;20140;-46
2022/04/16 09:50:11;;;;;;;47.70;30.38;;;;;;;;;;5024217;28;20868;-45
2022/04/16 09:52:37;;;;;;;39.17;25.10;;;;;;;;;;5020875;28;20082;-43
2022/04/16 09:55:03;;;;;;;29.35;18.95;;;;;;;;;;5021365;28;20029;-48
2022/04/16 09:57:31;;;;;;;26.70;18.70;;;;;;;;;;5021371;28;20060;-44
2022/04/16 09:59:58;;;;;;;15.55;12.30;;;;;;;;;;5021214;28;20037;-41
2022/04/16 10:02:27;;;;;;;28.75;15.90;;;;;;;;;;5021364;28;20029;-47
2022/04/16 10:04:55;;;;;;;18.30;9.43;;;;;;;;;;5021160;28;20404;-41
2022/04/16 10:07:21;;;;;;;14.35;9.95;;;;;;;;;;5022621;28;20024;-49
2022/04/16 10:09:53;;;;;;;88.97;59.22;;;;;;;;;;5021128;28;20196;-42
2022/04/16 10:15:05;;;;;;;11.20;5.80;;;;;;;;;;5020986;28;20749;-51
2022/04/16 10:17:35;;;;;;;9.48;4.82;;;;;;;;;;5020820;28;20529;-45
2022/04/16 10:20:08;;;;;;;51.38;34.10;;;;;;;;;;5023050;28;20025;-45
2022/04/16 10:22:34;;;;;;;64.25;41.50;;;;;;;;;;5021157;28;20021;-41
2022/04/16 10:25:00;;;;;;;20.50;12.73;;;;;;;;;;5021242;28;20025;-46
2022/04/16 10:27:27;;;;;;;74.10;41.40;;;;;;;;;;5022218;28;20021;-50
2022/04/16 10:29:54;;;;;;;41.45;25.33;;;;;;;;;;5021769;28;20593;-47
2022/04/16 10:32:20;;;;;;;13.95;7.97;;;;;;;;;;5021212;28;20021;-47
2022/04/16 10:34:47;;;;;;;47.25;30.55;;;;;;;;;;5020851;28;20021;-41
2022/04/16 10:37:25;;;;;;;110.43;69.32;;;;;;;;;;5020998;28;20029;-49
2022/04/16 10:39:54;;;;;;;34.28;21.30;;;;;;;;;;5022291;28;20040;-44
2022/04/16 10:42:31;;;;;;;56.72;34.58;;;;;;;;;;5021054;28;20075;-49
2022/04/16 10:45:09;;;;;;;16.48;11.27;;;;;;;;;;5021677;28;20400;-50
2022/04/16 10:47:38;;;;;;;24.90;15.25;;;;;;;;;;5020700;28;20027;-48
2022/04/16 10:50:23;;;;;;;46.25;27.65;;;;;;;;;;5020758;28;20505;-42
2022/04/16 10:52:56;;;;;;;82.47;49.85;;;;;;;;;;5020943;28;20029;-44
2022/04/16 10:55:36;;;;;;;88.13;53.53;;;;;;;;;;5020954;28;20037;-44
2022/04/16 10:58:06;;;;;;;12.65;9.05;;;;;;;;;;5020437;28;20037;-47
2022/04/16 11:00:40;;;;;;;102.10;63.30;;;;;;;;;;5020521;28;20033;-46
2022/04/16 11:03:10;;;;;;;34.47;21.75;;;;;;;;;;5021484;28;20021;-43
2022/04/16 11:05:37;;;;;;;25.08;12.65;;;;;;;;;;5026192;28;20593;-45
2022/04/16 11:08:03;;;;;;;18.02;11.43;;;;;;;;;;5024020;28;20078;-42
2022/04/16 11:10:29;;;;;;;7.68;5.20;;;;;;;;;;5024208;28;20029;-42
2022/04/16 11:12:57;;;;;;;5.43;4.32;;;;;;;;;;5023950;28;20025;-46
2022/04/16 11:15:26;;;;;;;6.70;5.05;;;;;;;;;;5024128;28;20025;-42
2022/04/16 11:17:59;;;;;;;12.02;7.80;;;;;;;;;;5025033;28;20782;-46
2022/04/16 11:20:27;;;;;;;10.57;7.50;;;;;;;;;;5024872;28;20075;-44
2022/04/16 11:22:54;;;;;;;18.15;9.57;;;;;;;;;;5023421;28;20031;-44
2022/04/16 11:34:14;;;;;;;19.17;10.52;;;;;;;;;;5023510;28;20163;-45
2022/04/16 11:36:29;;;;;;;12.98;9.57;;;;;;;;;;5024582;28;20095;-44
2022/04/16 11:38:56;;;;;;;23.45;13.60;;;;;;;;;;5023323;28;20025;-43
2022/04/16 11:41:23;;;;;;;13.80;9.07;;;;;;;;;;5022793;28;20326;-48
2022/04/16 11:43:53;;;;;;;26.23;13.35;;;;;;;;;;5023359;28;20025;-46
2022/04/16 11:46:22;;;;;;;20.60;13.77;;;;;;;;;;5022920;28;20397;-46
2022/04/16 11:48:49;;;;;;;14.15;9.27;;;;;;;;;;5022919;28;20049;-47
2022/04/16 11:51:15;;;;;;;18.45;11.68;;;;;;;;;;5023898;28;20116;-45
2022/04/16 11:53:45;;;;;;;20.00;12.32;;;;;;;;;;5023066;28;20029;-44
2022/04/16 11:56:11;;;;;;;27.42;14.57;;;;;;;;;;5022897;28;20429;-43
2022/04/16 11:58:37;;;;;;;33.85;19.30;;;;;;;;;;5022957;28;20138;-43
2022/04/16 12:01:06;;;;;;;18.58;11.27;;;;;;;;;;5022804;28;20413;-48
2022/04/16 12:03:36;;;;;;;17.38;11.77;;;;;;;;;;5022844;28;20212;-41
2022/04/16 12:06:02;;;;;;;26.75;16.02;;;;;;;;;;5049622;28;20039;-42
2022/04/16 12:08:31;;;;;;;32.10;20.67;;;;;;;;;;5075313;28;20036;-41
2022/04/16 12:11:00;;;;;;;54.10;31.67;;;;;;;;;;5075433;28;20109;-41
2022/04/16 12:13:33;;;;;;;49.97;28.27;;;;;;;;;;5074992;28;20392;-40
2022/04/16 12:16:03;;;;;;;30.15;17.70;;;;;;;;;;5074628;28;20043;-44
2022/04/16 12:18:34;;;;;;;17.73;11.45;;;;;;;;;;5074911;28;20021;-43
2022/04/16 12:21:05;;;;;;;14.55;8.30;;;;;;;;;;5074954;28;20035;-45
2022/04/16 12:23:31;;;;;;;23.40;15.70;;;;;;;;;;5074765;28;20016;-41
2022/04/16 12:26:05;;;;;;;27.42;19.25;;;;;;;;;;5073534;28;20029;-41
2022/04/16 12:28:35;;;;;;;24.13;16.15;;;;;;;;;;5074541;28;20029;-44
2022/04/16 12:31:02;;;;;;;20.70;12.68;;;;;;;;;;5074624;28;20025;-40
2022/04/16 12:33:28;;;;;;;9.40;7.18;;;;;;;;;;5074459;28;20487;-48
2022/04/16 12:35:57;;;;;;;10.80;8.40;;;;;;;;;;5074405;28;20082;-42
2022/04/16 12:38:25;;;;;;;14.25;11.60;;;;;;;;;;5074415;28;20021;-44
2022/04/16 12:40:52;;;;;;;17.60;12.48;;;;;;;;;;5074601;28;20024;-41
2022/04/16 12:43:18;;;;;;;13.38;8.20;;;;;;;;;;5074379;28;20021;-46
2022/04/16 12:45:44;;;;;;;9.23;5.82;;;;;;;;;;5074325;28;20032;-43
2022/04/16 12:48:11;;;;;;;12.13;8.73;;;;;;;;;;5074216;28;20067;-46
2022/04/16 12:50:39;;;;;;;21.02;13.40;;;;;;;;;;5074191;28;20024;-44
2022/04/16 12:53:05;;;;;;;12.38;9.07;;;;;;;;;;5074327;28;20027;-40
2022/04/16 12:55:31;;;;;;;9.15;7.55;;;;;;;;;;5074313;28;20024;-44
2022/04/16 12:57:58;;;;;;;15.85;9.25;;;;;;;;;;5074262;28;20021;-41
2022/04/16 13:00:24;;;;;;;16.25;10.48;;;;;;;;;;5074168;28;20025;-41
2022/04/16 13:02:50;;;;;;;20.48;14.02;;;;;;;;;;5074201;28;20028;-41
2022/04/16 13:05:17;;;;;;;14.48;9.20;;;;;;;;;;5073996;28;20016;-49
2022/04/16 13:07:46;;;;;;;15.38;9.43;;;;;;;;;;5073878;28;20028;-43
2022/04/16 13:10:13;;;;;;;14.20;8.98;;;;;;;;;;5074031;28;20036;-44
2022/04/16 13:12:39;;;;;;;8.48;6.82;;;;;;;;;;5073749;28;20383;-43
2022/04/16 13:15:06;;;;;;;11.57;6.28;;;;;;;;;;5073792;28;20033;-44
2022/04/16 13:17:32;;;;;;;11.10;6.93;;;;;;;;;;5074247;28;20043;-48
2022/04/16 13:20:01;;;;;;;11.15;7.05;;;;;;;;;;5073765;28;20437;-42
2022/04/16 13:22:27;;;;;;;12.43;8.05;;;;;;;;;;5073940;28;20030;-41
2022/04/16 13:24:54;;;;;;;6.63;5.38;;;;;;;;;;5073791;28;20021;-43
2022/04/16 13:27:20;;;;;;;10.95;7.38;;;;;;;;;;5073179;28;20021;-42
2022/04/16 13:29:46;;;;;;;9.20;6.63;;;;;;;;;;5073619;28;20041;-41
2022/04/16 13:32:14;;;;;;;9.02;5.65;;;;;;;;;;5073624;28;20060;-48
2022/04/16 13:34:40;;;;;;;8.68;5.72;;;;;;;;;;5073549;28;20024;-41
2022/04/16 13:37:09;;;;;;;11.20;6.45;;;;;;;;;;5073710;28;20024;-45
2022/04/16 13:42:23;;;;;;;9.68;6.45;;;;;;;;;;5073947;28;20376;-41
2022/04/16 13:44:49;;;;;;;11.55;6.15;;;;;;;;;;5073347;28;20128;-40
2022/04/16 13:47:17;;;;;;;9.02;6.00;;;;;;;;;;5073307;28;20027;-40
2022/04/16 13:49:44;;;;;;;9.52;6.18;;;;;;;;;;5073442;28;20488;-40
2022/04/16 13:52:10;;;;;;;8.52;4.70;;;;;;;;;;5073606;28;20025;-40
2022/04/16 13:54:36;;;;;;;7.47;3.63;;;;;;;;;;5073480;28;20028;-40
2022/04/16 13:57:03;;;;;;;5.57;3.20;;;;;;;;;;5073243;28;20456;-40
2022/04/16 13:59:29;;;;;;;8.75;4.00;;;;;;;;;;5073271;28;20096;-46
2022/04/16 14:01:56;;;;;;;6.85;4.47;;;;;;;;;;5073278;28;20533;-42
2022/04/16 14:04:23;;;;;;;7.28;4.93;;;;;;;;;;5073375;28;20048;-41
2022/04/16 14:06:49;;;;;;;6.60;4.03;;;;;;;;;;5073390;28;20031;-44
2022/04/16 14:09:15;;;;;;;6.32;4.10;;;;;;;;;;5073035;28;20032;-47
2022/04/16 14:11:41;;;;;;;4.22;3.35;;;;;;;;;;5073261;28;20025;-46
2022/04/16 14:14:08;;;;;;;5.00;3.20;;;;;;;;;;5073261;28;20024;-44
2022/04/16 14:16:34;;;;;;;4.88;2.80;;;;;;;;;;5073057;28;20032;-43
2022/04/16 14:19:00;;;;;;;3.67;2.70;;;;;;;;;;5073028;28;20021;-40
2022/04/16 14:21:30;;;;;;;8.48;3.67;;;;;;;;;;5073228;28;20063;-45
2022/04/16 14:23:56;;;;;;;8.10;4.80;;;;;;;;;;5073222;28;20021;-41
2022/04/16 14:26:22;;;;;;;6.85;3.92;;;;;;;;;;5062016;28;20048;-52
2022/04/16 14:28:48;;;;;;;6.30;4.40;;;;;;;;;;5052772;28;20037;-52
2022/04/16 14:31:15;;;;;;;9.00;4.80;;;;;;;;;;5049681;28;20104;-48
2022/04/16 14:33:41;;;;;;;10.48;4.10;;;;;;;;;;5052391;28;20020;-40
2022/04/16 14:36:08;;;;;;;7.55;3.53;;;;;;;;;;5052738;28;20119;-42
2022/04/16 14:38:39;;;;;;;5.93;3.88;;;;;;;;;;5053543;28;20025;-41
2022/04/16 14:41:09;;;;;;;5.32;3.63;;;;;;;;;;5054131;28;20094;-41
2022/04/16 14:43:40;;;;;;;3.63;2.58;;;;;;;;;;5056295;28;20049;-43
2022/04/16 14:46:07;;;;;;;4.35;2.72;;;;;;;;;;5054031;28;20064;-48
2022/04/16 14:48:33;;;;;;;8.63;2.72;;;;;;;;;;5056015;28;20504;-47
2022/04/16 14:51:01;;;;;;;2.70;1.92;;;;;;;;;;5056046;28;20033;-42
2022/04/16 14:53:27;;;;;;;2.70;2.33;;;;;;;;;;5055967;28;20029;-47